sensor_id;sensor_type;location;lat;lon;timestamp;pressure;altitude;pressure_sealevel;temperature;humidity
80798;BME280;70202;52.238;10.680;2023-07-13T00:00:26;99941.94;;;18.24;61.53
80798;BME280;70202;52.238;10.680;2023-07-13T00:01:28;99942.81;;;18.25;61.43
80798;BME280;70202;52.238;10.680;2023-07-13T00:02:28;99928.88;;;18.15;61.61
80798;BME280;70202;52.238;10.680;2023-07-13T00:03:29;99943.94;;;18.22;61.42
80798;BME280;70202;52.238;10.680;2023-07-13T00:04:35;99948.47;;;18.23;61.36
80798;BME280;70202;52.238;10.680;2023-07-13T00:05:36;99925.34;;;18.13;61.64
80798;BME280;70202;52.238;10.680;2023-07-13T00:06:36;99935.38;;;18.14;61.21
80798;BME280;70202;52.238;10.680;2023-07-13T00:07:37;99950.34;;;18.23;61.49
80798;BME280;70202;52.238;10.680;2023-07-13T00:08:37;99910.72;;;18.00;61.57
80798;BME280;70202;52.238;10.680;2023-07-13T00:09:37;99954.97;;;18.22;61.24
80798;BME280;70202;52.238;10.680;2023-07-13T00:10:41;99939.03;;;18.15;61.67
80798;BME280;70202;52.238;10.680;2023-07-13T00:11:43;99950.69;;;18.18;61.94
80798;BME280;70202;52.238;10.680;2023-07-13T00:12:44;99944.63;;;18.13;61.62
80798;BME280;70202;52.238;10.680;2023-07-13T00:13:45;99951.44;;;18.20;61.65
80798;BME280;70202;52.238;10.680;2023-07-13T00:14:45;99953.19;;;18.21;61.60
80798;BME280;70202;52.238;10.680;2023-07-13T00:15:45;99940.34;;;18.09;61.58
80798;BME280;70202;52.238;10.680;2023-07-13T00:16:46;99925.38;;;18.01;61.58
80798;BME280;70202;52.238;10.680;2023-07-13T00:17:47;99937.59;;;18.09;61.47
80798;BME280;70202;52.238;10.680;2023-07-13T00:18:47;99960.50;;;18.22;61.79
80798;BME280;70202;52.238;10.680;2023-07-13T00:19:47;99937.72;;;18.08;61.61
80798;BME280;70202;52.238;10.680;2023-07-13T00:20:48;99951.78;;;18.16;61.59
80798;BME280;70202;52.238;10.680;2023-07-13T00:21:48;99967.75;;;18.23;61.68
80798;BME280;70202;52.238;10.680;2023-07-13T00:22:49;99963.13;;;18.24;61.51
80798;BME280;70202;52.238;10.680;2023-07-13T00:23:49;99921.22;;;17.95;61.65
80798;BME280;70202;52.238;10.680;2023-07-13T00:24:50;99938.38;;;18.11;61.81
80798;BME280;70202;52.238;10.680;2023-07-13T00:25:52;99968.75;;;18.22;61.29
80798;BME280;70202;52.238;10.680;2023-07-13T00:26:52;99960.81;;;18.18;61.73
80798;BME280;70202;52.238;10.680;2023-07-13T00:27:53;99927.03;;;18.03;61.65
80798;BME280;70202;52.238;10.680;2023-07-13T00:28:54;99950.63;;;18.07;61.71
80798;BME280;70202;52.238;10.680;2023-07-13T00:29:54;99965.34;;;18.19;62.02
80798;BME280;70202;52.238;10.680;2023-07-13T00:30:54;99951.50;;;18.08;61.84
80798;BME280;70202;52.238;10.680;2023-07-13T00:31:55;99947.88;;;18.07;61.88
80798;BME280;70202;52.238;10.680;2023-07-13T00:32:55;99964.47;;;18.18;61.95
80798;BME280;70202;52.238;10.680;2023-07-13T00:33:56;99962.69;;;18.17;61.84
80798;BME280;70202;52.238;10.680;2023-07-13T00:34:57;99966.34;;;18.18;61.93
80798;BME280;70202;52.238;10.680;2023-07-13T00:35:58;99944.31;;;18.05;61.80
80798;BME280;70202;52.238;10.680;2023-07-13T00:36:58;99963.56;;;18.18;61.87
80798;BME280;70202;52.238;10.680;2023-07-13T00:37:59;99904.38;;;17.87;61.98
80798;BME280;70202;52.238;10.680;2023-07-13T00:38:59;99945.97;;;18.08;61.96
80798;BME280;70202;52.238;10.680;2023-07-13T00:40:00;99948.28;;;18.14;62.05
80798;BME280;70202;52.238;10.680;2023-07-13T00:41:01;99950.13;;;18.13;62.11
80798;BME280;70202;52.238;10.680;2023-07-13T00:42:03;99917.47;;;17.96;61.94
80798;BME280;70202;52.238;10.680;2023-07-13T00:43:11;99960.41;;;18.11;62.09
80798;BME280;70202;52.238;10.680;2023-07-13T00:44:15;99933.91;;;17.97;62.21
80798;BME280;70202;52.238;10.680;2023-07-13T00:46:28;99946.69;;;17.98;62.14
80798;BME280;70202;52.238;10.680;2023-07-13T00:47:29;99956.69;;;17.99;61.45
80798;BME280;70202;52.238;10.680;2023-07-13T00:48:34;99961.13;;;18.02;62.18
80798;BME280;70202;52.238;10.680;2023-07-13T00:49:37;99967.63;;;18.01;62.39
80798;BME280;70202;52.238;10.680;2023-07-13T00:50:38;99887.38;;;17.56;62.11
80798;BME280;70202;52.238;10.680;2023-07-13T00:51:45;99946.50;;;17.89;62.16
80798;BME280;70202;52.238;10.680;2023-07-13T00:52:50;99964.97;;;17.99;62.29
80798;BME280;70202;52.238;10.680;2023-07-13T00:53:54;99946.84;;;17.84;62.41
80798;BME280;70202;52.238;10.680;2023-07-13T00:54:57;99967.63;;;18.01;62.49
80798;BME280;70202;52.238;10.680;2023-07-13T00:55:58;99953.53;;;17.93;62.41
80798;BME280;70202;52.238;10.680;2023-07-13T00:57:01;99969.38;;;18.02;62.47
80798;BME280;70202;52.238;10.680;2023-07-13T00:58:02;99945.50;;;17.90;62.49
80798;BME280;70202;52.238;10.680;2023-07-13T00:59:05;99969.25;;;18.04;62.31
80798;BME280;70202;52.238;10.680;2023-07-13T01:00:09;99966.38;;;18.05;62.47
80798;BME280;70202;52.238;10.680;2023-07-13T01:01:09;99938.34;;;17.87;62.50
80798;BME280;70202;52.238;10.680;2023-07-13T01:02:10;99970.78;;;18.08;62.31
80798;BME280;70202;52.238;10.680;2023-07-13T01:03:11;99963.53;;;18.07;62.49
80798;BME280;70202;52.238;10.680;2023-07-13T01:04:11;99971.56;;;18.10;62.41
80798;BME280;70202;52.238;10.680;2023-07-13T01:05:23;99944.06;;;17.97;62.42
80798;BME280;70202;52.238;10.680;2023-07-13T01:06:24;99943.28;;;17.95;62.22
80798;BME280;70202;52.238;10.680;2023-07-13T01:07:25;99954.72;;;18.02;62.47
80798;BME280;70202;52.238;10.680;2023-07-13T01:08:25;99956.47;;;18.03;62.39
80798;BME280;70202;52.238;10.680;2023-07-13T01:09:27;99935.13;;;17.93;62.71
80798;BME280;70202;52.238;10.680;2023-07-13T01:10:27;99979.25;;;18.17;62.45
80798;BME280;70202;52.238;10.680;2023-07-13T01:11:28;99955.25;;;18.07;62.48
80798;BME280;70202;52.238;10.680;2023-07-13T01:12:29;99952.16;;;18.11;62.53
80798;BME280;70202;52.238;10.680;2023-07-13T01:13:31;99933.25;;;17.94;62.32
80798;BME280;70202;52.238;10.680;2023-07-13T01:14:31;99976.03;;;18.23;62.35
80798;BME280;70202;52.238;10.680;2023-07-13T01:15:40;99974.03;;;18.26;62.41
80798;BME280;70202;52.238;10.680;2023-07-13T01:16:44;99950.28;;;18.12;62.57
80798;BME280;70202;52.238;10.680;2023-07-13T01:17:45;99970.16;;;18.28;62.54
80798;BME280;70202;52.238;10.680;2023-07-13T01:18:45;99960.59;;;18.21;62.45
80798;BME280;70202;52.238;10.680;2023-07-13T01:19:46;99945.41;;;18.15;62.34
80798;BME280;70202;52.238;10.680;2023-07-13T01:20:57;99937.78;;;18.19;62.44
80798;BME280;70202;52.238;10.680;2023-07-13T01:21:58;99956.50;;;18.27;62.44
80798;BME280;70202;52.238;10.680;2023-07-13T01:22:59;99965.94;;;18.35;62.13
80798;BME280;70202;52.238;10.680;2023-07-13T01:24:00;99942.94;;;18.23;62.22
80798;BME280;70202;52.238;10.680;2023-07-13T01:25:01;99958.56;;;18.36;62.15
80798;BME280;70202;52.238;10.680;2023-07-13T01:26:01;99941.81;;;18.26;62.38
80798;BME280;70202;52.238;10.680;2023-07-13T01:27:03;99950.63;;;18.31;62.36
80798;BME280;70202;52.238;10.680;2023-07-13T01:28:05;99938.31;;;18.24;62.50
80798;BME280;70202;52.238;10.680;2023-07-13T01:29:05;99968.22;;;18.41;62.32
80798;BME280;70202;52.238;10.680;2023-07-13T01:30:08;99959.22;;;18.39;61.87
80798;BME280;70202;52.238;10.680;2023-07-13T01:31:09;99944.34;;;18.29;62.25
80798;BME280;70202;52.238;10.680;2023-07-13T01:32:15;99964.47;;;18.42;62.39
80798;BME280;70202;52.238;10.680;2023-07-13T01:33:17;99964.47;;;18.42;62.37
80798;BME280;70202;52.238;10.680;2023-07-13T01:34:18;99966.34;;;18.42;62.22
80798;BME280;70202;52.238;10.680;2023-07-13T01:35:18;99935.31;;;18.27;62.34
80798;BME280;70202;52.238;10.680;2023-07-13T01:36:19;99960.09;;;18.40;62.42
80798;BME280;70202;52.238;10.680;2023-07-13T01:37:22;99962.72;;;18.41;62.49
80798;BME280;70202;52.238;10.680;2023-07-13T01:38:23;99942.47;;;18.30;62.22
80798;BME280;70202;52.238;10.680;2023-07-13T01:39:23;99952.50;;;18.31;62.43
80798;BME280;70202;52.238;10.680;2023-07-13T01:40:24;99947.22;;;18.28;62.45
80798;BME280;70202;52.238;10.680;2023-07-13T01:41:24;99966.22;;;18.43;62.39
80798;BME280;70202;52.238;10.680;2023-07-13T01:42:25;99949.72;;;18.31;62.43
80798;BME280;70202;52.238;10.680;2023-07-13T01:43:25;99968.97;;;18.43;62.35
80798;BME280;70202;52.238;10.680;2023-07-13T01:44:26;99974.50;;;18.43;62.54
80798;BME280;70202;52.238;10.680;2023-07-13T01:45:26;99952.50;;;18.31;62.62
80798;BME280;70202;52.238;10.680;2023-07-13T01:46:26;99958.66;;;18.34;62.54
80798;BME280;70202;52.238;10.680;2023-07-13T01:47:27;99970.84;;;18.43;62.61
80798;BME280;70202;52.238;10.680;2023-07-13T01:48:28;99971.84;;;18.42;62.44
80798;BME280;70202;52.238;10.680;2023-07-13T01:49:28;99970.09;;;18.41;62.42
80798;BME280;70202;52.238;10.680;2023-07-13T01:50:28;99950.22;;;18.24;62.63
80798;BME280;70202;52.238;10.680;2023-07-13T01:51:29;99932.50;;;18.16;62.61
80798;BME280;70202;52.238;10.680;2023-07-13T01:52:29;99963.53;;;18.31;62.50
80798;BME280;70202;52.238;10.680;2023-07-13T01:53:29;99960.50;;;18.22;62.56
80798;BME280;70202;52.238;10.680;2023-07-13T01:54:30;99944.75;;;18.12;62.54
80798;BME280;70202;52.238;10.680;2023-07-13T01:55:31;99957.97;;;18.19;62.66
80798;BME280;70202;52.238;10.680;2023-07-13T01:56:31;99962.25;;;18.23;62.86
80798;BME280;70202;52.238;10.680;2023-07-13T01:57:32;99962.34;;;18.22;62.70
80798;BME280;70202;52.238;10.680;2023-07-13T01:58:32;99935.09;;;18.06;62.66
80798;BME280;70202;52.238;10.680;2023-07-13T01:59:32;99954.91;;;18.11;62.84
80798;BME280;70202;52.238;10.680;2023-07-13T02:00:33;99953.25;;;18.09;62.65
80798;BME280;70202;52.238;10.680;2023-07-13T02:01:34;99943.06;;;17.98;62.76
80798;BME280;70202;52.238;10.680;2023-07-13T02:02:34;99967.69;;;18.12;62.96
80798;BME280;70202;52.238;10.680;2023-07-13T02:03:34;99968.81;;;18.10;62.91
80798;BME280;70202;52.238;10.680;2023-07-13T02:04:35;99961.13;;;18.02;63.13
80798;BME280;70202;52.238;10.680;2023-07-13T02:05:36;99969.03;;;18.07;63.09
80798;BME280;70202;52.238;10.680;2023-07-13T02:06:36;99937.47;;;17.87;63.02
80798;BME280;70202;52.238;10.680;2023-07-13T02:07:37;99969.38;;;18.02;63.08
80798;BME280;70202;52.238;10.680;2023-07-13T02:08:38;99971.28;;;18.02;63.23
80798;BME280;70202;52.238;10.680;2023-07-13T02:09:38;99951.38;;;17.85;63.21
80798;BME280;70202;52.238;10.680;2023-07-13T02:10:39;99956.09;;;17.83;63.10
80798;BME280;70202;52.238;10.680;2023-07-13T02:11:39;99970.19;;;17.91;63.39
80798;BME280;70202;52.238;10.680;2023-07-13T02:12:40;99971.31;;;17.89;63.32
80798;BME280;70202;52.238;10.680;2023-07-13T02:13:41;99966.13;;;17.84;63.22
80798;BME280;70202;52.238;10.680;2023-07-13T02:14:41;99980.97;;;17.94;63.60
80798;BME280;70202;52.238;10.680;2023-07-13T02:15:42;99961.72;;;17.82;63.44
80798;BME280;70202;52.238;10.680;2023-07-13T02:16:43;99966.34;;;17.81;63.54
80798;BME280;70202;52.238;10.680;2023-07-13T02:17:43;99975.03;;;17.88;63.64
80798;BME280;70202;52.238;10.680;2023-07-13T02:18:44;99977.69;;;17.89;63.41
80798;BME280;70202;52.238;10.680;2023-07-13T02:19:44;99945.84;;;17.72;63.49
80798;BME280;70202;52.238;10.680;2023-07-13T02:20:44;99982.50;;;17.98;63.52
80798;BME280;70202;52.238;10.680;2023-07-13T02:21:45;99966.66;;;17.89;63.60
80798;BME280;70202;52.238;10.680;2023-07-13T02:22:45;99977.00;;;17.98;63.35
80798;BME280;70202;52.238;10.680;2023-07-13T02:23:45;99964.31;;;17.96;63.52
80798;BME280;70202;52.238;10.680;2023-07-13T02:24:46;99975.56;;;18.06;63.41
80798;BME280;70202;52.238;10.680;2023-07-13T02:25:46;99966.63;;;18.02;63.42
80798;BME280;70202;52.238;10.680;2023-07-13T02:26:47;99956.84;;;17.98;63.26
80798;BME280;70202;52.238;10.680;2023-07-13T02:27:48;99951.53;;;17.95;63.24
80798;BME280;70202;52.238;10.680;2023-07-13T02:28:48;99978.72;;;18.12;63.16
80798;BME280;70202;52.238;10.680;2023-07-13T02:29:48;99966.38;;;18.05;63.34
80798;BME280;70202;52.238;10.680;2023-07-13T02:30:51;99961.22;;;18.01;63.55
80798;BME280;70202;52.238;10.680;2023-07-13T02:31:52;99970.13;;;18.04;63.40
80798;BME280;70202;52.238;10.680;2023-07-13T02:32:52;99962.22;;;17.99;63.38
80798;BME280;70202;52.238;10.680;2023-07-13T02:33:52;99962.22;;;17.99;63.72
80798;BME280;70202;52.238;10.680;2023-07-13T02:34:53;99948.13;;;17.91;63.46
80798;BME280;70202;52.238;10.680;2023-07-13T02:35:53;99985.34;;;18.10;63.30
80798;BME280;70202;52.238;10.680;2023-07-13T02:36:55;99988.88;;;18.12;63.81
80798;BME280;70202;52.238;10.680;2023-07-13T02:37:56;99968.38;;;18.03;63.75
80798;BME280;70202;52.238;10.680;2023-07-13T02:39:00;99965.50;;;18.05;63.50
80798;BME280;70202;52.238;10.680;2023-07-13T02:40:01;99984.22;;;18.12;63.51
80798;BME280;70202;52.238;10.680;2023-07-13T02:41:09;99981.38;;;18.14;63.49
80798;BME280;70202;52.238;10.680;2023-07-13T02:42:09;99978.63;;;18.14;63.72
80798;BME280;70202;52.238;10.680;2023-07-13T02:43:10;99955.47;;;18.04;63.45
80798;BME280;70202;52.238;10.680;2023-07-13T02:44:12;99919.91;;;17.88;63.49
80798;BME280;70202;52.238;10.680;2023-07-13T02:45:13;99968.34;;;18.16;63.40
80798;BME280;70202;52.238;10.680;2023-07-13T02:46:14;99956.31;;;18.17;63.34
80798;BME280;70202;52.238;10.680;2023-07-13T02:47:15;99951.28;;;18.11;63.50
80798;BME280;70202;52.238;10.680;2023-07-13T02:48:15;99956.31;;;18.17;63.95
80798;BME280;70202;52.238;10.680;2023-07-13T02:49:15;99968.22;;;18.17;63.16
80798;BME280;70202;52.238;10.680;2023-07-13T02:50:16;99959.53;;;18.11;63.11
80798;BME280;70202;52.238;10.680;2023-07-13T02:51:16;99950.50;;;18.09;63.21
80798;BME280;70202;52.238;10.680;2023-07-13T02:52:16;99934.88;;;17.96;63.14
80798;BME280;70202;52.238;10.680;2023-07-13T02:53:17;99967.69;;;18.12;63.22
80798;BME280;70202;52.238;10.680;2023-07-13T02:54:17;99952.84;;;18.02;63.29
80798;BME280;70202;52.238;10.680;2023-07-13T02:55:18;99967.91;;;18.09;63.26
80798;BME280;70202;52.238;10.680;2023-07-13T02:56:25;99939.66;;;17.94;63.16
80798;BME280;70202;52.238;10.680;2023-07-13T02:57:26;99953.06;;;17.99;63.03
80798;BME280;70202;52.238;10.680;2023-07-13T02:58:28;99944.63;;;17.89;63.25
80798;BME280;70202;52.238;10.680;2023-07-13T02:59:28;99963.88;;;18.02;63.40
80798;BME280;70202;52.238;10.680;2023-07-13T03:00:29;99951.75;;;17.92;63.37
80798;BME280;70202;52.238;10.680;2023-07-13T03:01:29;99918.88;;;17.78;63.39
80798;BME280;70202;52.238;10.680;2023-07-13T03:02:30;99961.34;;;17.99;63.31
80798;BME280;70202;52.238;10.680;2023-07-13T03:03:31;99958.59;;;17.99;62.87
80798;BME280;70202;52.238;10.680;2023-07-13T03:04:31;99952.31;;;17.97;63.60
80798;BME280;70202;52.238;10.680;2023-07-13T03:05:31;99938.47;;;17.86;63.21
80798;BME280;70202;52.238;10.680;2023-07-13T03:06:33;99948.78;;;17.95;63.43
80798;BME280;70202;52.238;10.680;2023-07-13T03:07:33;99951.66;;;17.93;63.34
80798;BME280;70202;52.238;10.680;2023-07-13T03:08:34;99951.75;;;17.92;63.52
80798;BME280;70202;52.238;10.680;2023-07-13T03:09:35;99951.88;;;17.90;63.86
80798;BME280;70202;52.238;10.680;2023-07-13T03:10:35;99927.13;;;17.78;63.62
80798;BME280;70202;52.238;10.680;2023-07-13T03:11:35;99943.19;;;17.84;63.66
80798;BME280;70202;52.238;10.680;2023-07-13T03:12:36;99933.81;;;17.73;63.51
80798;BME280;70202;52.238;10.680;2023-07-13T03:13:37;99931.19;;;17.72;63.59
80798;BME280;70202;52.238;10.680;2023-07-13T03:14:38;99937.69;;;17.71;63.35
80798;BME280;70202;52.238;10.680;2023-07-13T03:15:38;99943.97;;;17.73;63.44
80798;BME280;70202;52.238;10.680;2023-07-13T03:16:38;99944.97;;;17.72;63.89
80798;BME280;70202;52.238;10.680;2023-07-13T03:17:39;99938.59;;;17.71;63.84
80798;BME280;70202;52.238;10.680;2023-07-13T03:18:40;99951.19;;;17.76;63.70
80798;BME280;70202;52.238;10.680;2023-07-13T03:19:40;99955.88;;;17.73;63.96
80798;BME280;70202;52.238;10.680;2023-07-13T03:20:41;99937.28;;;17.64;63.78
80798;BME280;70202;52.238;10.680;2023-07-13T03:21:41;99945.66;;;17.63;63.79
80798;BME280;70202;52.238;10.680;2023-07-13T03:22:42;99943.13;;;17.60;63.94
80798;BME280;70202;52.238;10.680;2023-07-13T03:23:42;99940.59;;;17.57;63.55
80798;BME280;70202;52.238;10.680;2023-07-13T03:24:43;99920.78;;;17.52;63.88
80798;BME280;70202;52.238;10.680;2023-07-13T03:25:43;99939.50;;;17.59;63.74
80798;BME280;70202;52.238;10.680;2023-07-13T03:26:45;99956.44;;;17.66;64.13
80798;BME280;70202;52.238;10.680;2023-07-13T03:27:45;99945.09;;;17.58;63.94
80798;BME280;70202;52.238;10.680;2023-07-13T03:28:46;99946.88;;;17.59;63.80
80798;BME280;70202;52.238;10.680;2023-07-13T03:29:46;99958.44;;;17.64;64.09
80798;BME280;70202;52.238;10.680;2023-07-13T03:30:47;99942.69;;;17.53;64.09
80798;BME280;70202;52.238;10.680;2023-07-13T03:31:47;99928.59;;;17.45;64.11
80798;BME280;70202;52.238;10.680;2023-07-13T03:32:47;99942.69;;;17.53;64.14
80798;BME280;70202;52.238;10.680;2023-07-13T03:33:48;99945.69;;;17.50;64.03
80798;BME280;70202;52.238;10.680;2023-07-13T03:34:48;99935.97;;;17.44;64.08
80798;BME280;70202;52.238;10.680;2023-07-13T03:35:48;99970.53;;;17.61;64.17
80798;BME280;70202;52.238;10.680;2023-07-13T03:36:49;99966.91;;;17.61;64.16
80798;BME280;70202;52.238;10.680;2023-07-13T03:37:49;99963.63;;;17.56;64.16
80798;BME280;70202;52.238;10.680;2023-07-13T03:38:57;99952.94;;;17.51;64.04
80798;BME280;70202;52.238;10.680;2023-07-13T03:39:58;99952.94;;;17.51;64.38
80798;BME280;70202;52.238;10.680;2023-07-13T03:40:58;99948.75;;;17.45;63.96
80798;BME280;70202;52.238;10.680;2023-07-13T03:41:59;99952.81;;;17.53;64.21
80798;BME280;70202;52.238;10.680;2023-07-13T03:42:59;99952.28;;;17.47;64.18
80798;BME280;70202;52.238;10.680;2023-07-13T03:44:00;99968.66;;;17.62;64.12
80798;BME280;70202;52.238;10.680;2023-07-13T03:45:00;99948.44;;;17.50;64.24
80798;BME280;70202;52.238;10.680;2023-07-13T03:46:01;99980.81;;;17.59;64.19
80798;BME280;70202;52.238;10.680;2023-07-13T03:47:01;99975.84;;;17.64;64.11
80798;BME280;70202;52.238;10.680;2023-07-13T03:48:01;99967.56;;;17.64;64.31
80798;BME280;70202;52.238;10.680;2023-07-13T03:49:04;99967.56;;;17.64;64.19
80798;BME280;70202;52.238;10.680;2023-07-13T03:50:05;99972.97;;;17.66;64.29
80798;BME280;70202;52.238;10.680;2023-07-13T03:51:05;99975.72;;;17.66;64.40
80798;BME280;70202;52.238;10.680;2023-07-13T03:52:06;99974.63;;;17.68;64.04
80798;BME280;70202;52.238;10.680;2023-07-13T03:53:06;99980.88;;;17.70;64.17
80798;BME280;70202;52.238;10.680;2023-07-13T03:54:07;99959.53;;;17.61;64.28
80798;BME280;70202;52.238;10.680;2023-07-13T03:55:07;99981.66;;;17.72;64.19
80798;BME280;70202;52.238;10.680;2023-07-13T03:56:09;99979.78;;;17.73;64.30
80798;BME280;70202;52.238;10.680;2023-07-13T03:57:10;99951.72;;;17.55;64.21
80798;BME280;70202;52.238;10.680;2023-07-13T03:59:27;99991.59;;;17.75;63.89
80798;BME280;70202;52.238;10.680;2023-07-13T04:00:28;99965.91;;;17.62;64.11
80798;BME280;70202;52.238;10.680;2023-07-13T04:01:28;99974.72;;;17.67;63.97
80798;BME280;70202;52.238;10.680;2023-07-13T04:02:28;99965.56;;;17.66;64.05
80798;BME280;70202;52.238;10.680;2023-07-13T04:03:29;99986.66;;;17.80;63.95
80798;BME280;70202;52.238;10.680;2023-07-13T04:04:32;99993.91;;;17.81;63.97
80798;BME280;70202;52.238;10.680;2023-07-13T04:05:33;99990.81;;;17.73;63.91
80798;BME280;70202;52.238;10.680;2023-07-13T04:06:33;100003.06;;;17.82;63.86
80798;BME280;70202;52.238;10.680;2023-07-13T04:07:33;99976.38;;;17.69;64.01
80798;BME280;70202;52.238;10.680;2023-07-13T04:08:36;99997.53;;;17.82;63.80
80798;BME280;70202;52.238;10.680;2023-07-13T04:09:36;99984.31;;;17.74;63.97
80798;BME280;70202;52.238;10.680;2023-07-13T04:10:37;100006.34;;;17.87;63.92
80798;BME280;70202;52.238;10.680;2023-07-13T04:11:38;100006.25;;;17.88;63.75
80798;BME280;70202;52.238;10.680;2023-07-13T04:12:39;100005.13;;;17.91;63.86
80798;BME280;70202;52.238;10.680;2023-07-13T04:13:39;99996.31;;;17.86;63.67
80798;BME280;70202;52.238;10.680;2023-07-13T04:14:40;100010.50;;;17.92;63.63
80798;BME280;70202;52.238;10.680;2023-07-13T04:15:40;99987.63;;;17.79;63.68
80798;BME280;70202;52.238;10.680;2023-07-13T04:16:41;99990.81;;;17.86;63.82
80798;BME280;70202;52.238;10.680;2023-07-13T04:17:41;99999.75;;;17.89;63.57
80798;BME280;70202;52.238;10.680;2023-07-13T04:18:42;99994.44;;;17.86;63.63
80798;BME280;70202;52.238;10.680;2023-07-13T04:19:42;100003.38;;;17.90;63.90
80798;BME280;70202;52.238;10.680;2023-07-13T04:20:42;99977.47;;;17.80;63.74
80798;BME280;70202;52.238;10.680;2023-07-13T04:21:43;99996.63;;;17.94;63.63
80798;BME280;70202;52.238;10.680;2023-07-13T04:22:43;100013.38;;;18.04;63.77
80798;BME280;70202;52.238;10.680;2023-07-13T04:23:44;99989.59;;;17.90;63.61
80798;BME280;70202;52.238;10.680;2023-07-13T04:24:44;99981.31;;;17.90;63.61
80798;BME280;70202;52.238;10.680;2023-07-13T04:25:49;100012.94;;;18.10;63.75
80798;BME280;70202;52.238;10.680;2023-07-13T04:26:52;99996.06;;;18.02;63.46
80798;BME280;70202;52.238;10.680;2023-07-13T04:27:53;100001.25;;;18.06;63.54
80798;BME280;70202;52.238;10.680;2023-07-13T04:28:54;100007.41;;;18.10;63.55
80798;BME280;70202;52.238;10.680;2023-07-13T04:29:54;99998.84;;;18.02;63.67
80798;BME280;70202;52.238;10.680;2023-07-13T04:30:55;100014.47;;;18.14;63.60
80798;BME280;70202;52.238;10.680;2023-07-13T04:31:55;100012.56;;;18.14;63.49
80798;BME280;70202;52.238;10.680;2023-07-13T04:32:56;99998.72;;;18.03;63.56
80798;BME280;70202;52.238;10.680;2023-07-13T04:33:56;100022.25;;;18.20;63.42
80798;BME280;70202;52.238;10.680;2023-07-13T04:34:57;100017.63;;;18.20;63.59
80798;BME280;70202;52.238;10.680;2023-07-13T04:35:59;100028.41;;;18.23;63.39
80798;BME280;70202;52.238;10.680;2023-07-13T04:36:59;100013.31;;;18.16;63.59
80798;BME280;70202;52.238;10.680;2023-07-13T04:38:00;100025.44;;;18.27;63.81
80798;BME280;70202;52.238;10.680;2023-07-13T04:39:00;100012.63;;;18.26;63.52
80798;BME280;70202;52.238;10.680;2023-07-13T04:40:01;100026.84;;;18.32;63.55
80798;BME280;70202;52.238;10.680;2023-07-13T04:41:06;100016.91;;;18.30;63.39
80798;BME280;70202;52.238;10.680;2023-07-13T04:42:06;100008.34;;;18.21;63.48
80798;BME280;70202;52.238;10.680;2023-07-13T04:43:07;100031.88;;;18.38;63.39
80798;BME280;70202;52.238;10.680;2023-07-13T04:44:07;100030.78;;;18.41;63.45
80798;BME280;70202;52.238;10.680;2023-07-13T04:45:08;100013.06;;;18.32;63.08
80798;BME280;70202;52.238;10.680;2023-07-13T04:46:11;100034.06;;;18.46;63.12
80798;BME280;70202;52.238;10.680;2023-07-13T04:47:11;100039.47;;;18.47;62.87
80798;BME280;70202;52.238;10.680;2023-07-13T04:48:12;100023.38;;;18.41;63.03
80798;BME280;70202;52.238;10.680;2023-07-13T04:49:12;100035.81;;;18.47;63.11
80798;BME280;70202;52.238;10.680;2023-07-13T04:50:13;100022.50;;;18.41;62.83
80798;BME280;70202;52.238;10.680;2023-07-13T04:51:21;100025.91;;;18.44;63.16
80798;BME280;70202;52.238;10.680;2023-07-13T04:52:21;100024.69;;;18.48;63.31
80798;BME280;70202;52.238;10.680;2023-07-13T04:53:21;100054.84;;;18.63;62.91
80798;BME280;70202;52.238;10.680;2023-07-13T04:54:22;100030.97;;;18.51;63.28
80798;BME280;70202;52.238;10.680;2023-07-13T04:55:23;100018.28;;;18.48;63.03
80798;BME280;70202;52.238;10.680;2023-07-13T04:56:23;100048.78;;;18.70;62.90
80798;BME280;70202;52.238;10.680;2023-07-13T04:57:23;100047.56;;;18.75;62.82
80798;BME280;70202;52.238;10.680;2023-07-13T04:58:24;100030.47;;;18.69;62.71
80798;BME280;70202;52.238;10.680;2023-07-13T04:59:25;100053.38;;;18.83;62.62
80798;BME280;70202;52.238;10.680;2023-07-13T05:00:26;100050.25;;;18.87;62.71
80798;BME280;70202;52.238;10.680;2023-07-13T05:01:27;100038.34;;;18.87;63.06
80798;BME280;70202;52.238;10.680;2023-07-13T05:02:27;100051.94;;;19.01;62.71
80798;BME280;70202;52.238;10.680;2023-07-13T05:03:28;100029.44;;;18.94;62.70
80798;BME280;70202;52.238;10.680;2023-07-13T05:04:29;100034.13;;;19.05;62.47
80798;BME280;70202;52.238;10.680;2023-07-13T05:05:29;100048.50;;;19.21;62.46
80798;BME280;70202;52.238;10.680;2023-07-13T05:06:30;100038.69;;;19.17;62.23
80798;BME280;70202;52.238;10.680;2023-07-13T05:07:31;100035.19;;;19.27;62.24
80798;BME280;70202;52.238;10.680;2023-07-13T05:08:33;100025.00;;;19.27;61.67
80798;BME280;70202;52.238;10.680;2023-07-13T05:09:33;100054.94;;;19.44;61.74
80798;BME280;70202;52.238;10.680;2023-07-13T05:10:35;100058.09;;;19.51;61.64
80798;BME280;70202;52.238;10.680;2023-07-13T05:11:36;100045.66;;;19.45;61.45
80798;BME280;70202;52.238;10.680;2023-07-13T05:12:36;100037.63;;;19.42;61.57
80798;BME280;70202;52.238;10.680;2023-07-13T05:13:36;100039.13;;;19.46;61.37
80798;BME280;70202;52.238;10.680;2023-07-13T05:14:37;100061.03;;;19.61;61.29
80798;BME280;70202;52.238;10.680;2023-07-13T05:15:37;100058.91;;;19.64;61.29
80798;BME280;70202;52.238;10.680;2023-07-13T05:16:38;100061.53;;;19.66;60.96
80798;BME280;70202;52.238;10.680;2023-07-13T05:17:38;100074.75;;;19.73;60.94
80798;BME280;70202;52.238;10.680;2023-07-13T05:18:40;100065.34;;;19.76;60.90
80798;BME280;70202;52.238;10.680;2023-07-13T05:19:40;100042.19;;;19.66;61.00
80798;BME280;70202;52.238;10.680;2023-07-13T05:20:41;100046.47;;;19.70;60.81